Time;durP1;ratioP1;P1;durP2;ratioP2;P2;SDS_P1;SDS_P2;PMS_P1;PMS_P2;Temp;Humidity;BMP_temperature;BMP_pressure;BME280_temperature;BME280_humidity;BME280_pressure;Samples;Min_cycle;Max_cycle;Signal;HPM_P1;HPM_P2
2022/04/09 00:00:37;;;;;;;1.83;0.57;;;11.20;99.90;;;;;;4976435;28;20088;-83
2022/04/09 00:03:03;;;;;;;;;;;11.20;99.90;;;;;;4977058;28;20030;-84
2022/04/09 00:05:28;;;;;;;1.63;0.50;;;11.10;99.90;;;;;;5009509;28;19913;-84
2022/04/09 00:07:54;;;;;;;;;;;11.10;99.90;;;;;;4976622;28;20511;-85
2022/04/09 00:10:19;;;;;;;2.20;0.70;;;11.10;99.90;;;;;;4976308;28;19905;-85
2022/04/09 00:12:46;;;;;;;;;;;11.10;99.90;;;;;;4976899;28;20022;-85
2022/04/09 00:15:13;;;;;;;2.30;0.73;;;11.10;99.90;;;;;;4976459;28;19917;-84
2022/04/09 00:17:44;;;;;;;2.03;0.95;;;11.00;99.90;;;;;;4976353;28;20513;-85
2022/04/09 00:20:12;;;;;;;2.38;0.70;;;11.00;99.90;;;;;;4993949;28;20026;-84
2022/04/09 00:22:39;;;;;;;4.10;2.25;;;10.90;99.90;;;;;;4976475;28;20414;-85
2022/04/09 00:25:06;;;;;;;5.05;2.70;;;10.90;99.90;;;;;;4994159;28;20262;-85
2022/04/09 00:27:32;;;;;;;4.75;2.45;;;10.80;99.90;;;;;;4993763;28;20018;-84
2022/04/09 00:29:58;;;;;;;;;;;10.80;99.90;;;;;;4976824;28;20041;-85
2022/04/09 00:32:23;;;;;;;4.68;0.93;;;10.80;99.90;;;;;;4976444;28;19912;-85
2022/04/09 00:34:49;;;;;;;;;;;10.70;99.90;;;;;;4976780;28;20037;-85
2022/04/09 00:37:14;;;;;;;1.65;0.70;;;10.70;99.90;;;;;;4976162;28;19992;-85
2022/04/09 00:39:40;;;;;;;;;;;10.70;99.90;;;;;;4976203;28;20189;-85
2022/04/09 00:42:13;;;;;;;7.00;3.75;;;10.60;99.90;;;;;;4974846;28;19992;-84
2022/04/09 00:44:39;;;;;;;4.18;2.92;;;10.60;99.90;;;;;;4975722;28;20129;-85
2022/04/09 00:47:05;;;;;;;;;;;10.60;99.90;;;;;;4976529;28;20058;-85
2022/04/09 00:49:31;;;;;;;7.93;4.00;;;10.50;99.90;;;;;;4976391;28;19906;-85
2022/04/09 00:52:00;;;;;;;4.13;2.75;;;10.50;99.90;;;;;;4976171;28;20030;-85
2022/04/09 00:54:29;;;;;;;5.80;3.55;;;10.50;99.90;;;;;;4976565;28;20133;-85
2022/04/09 00:57:01;;;;;;;11.70;3.05;;;10.50;99.90;;;;;;4993349;28;20042;-85
2022/04/09 00:59:30;;;;;;;6.90;3.13;;;10.50;99.90;;;;;;4976140;28;20030;-85
2022/04/09 01:01:56;;;;;;;8.35;4.07;;;10.50;99.90;;;;;;4975364;28;20135;-85
2022/04/09 01:04:21;;;;;;;;;;;10.50;99.90;;;;;;4976426;28;20030;-84
2022/04/09 01:06:48;;;;;;;12.88;6.82;;;10.60;99.90;;;;;;4975995;28;20087;-86
2022/04/09 01:09:14;;;;;;;12.27;5.88;;;10.60;99.90;;;;;;4976109;28;20026;-84
2022/04/09 01:11:40;;;;;;;;;;;10.60;99.90;;;;;;4976595;28;20033;-85
2022/04/09 01:14:06;;;;;;;12.18;4.18;;;10.50;99.90;;;;;;4975835;28;19906;-85
2022/04/09 01:16:31;;;;;;;;;;;10.60;99.90;;;;;;4976220;28;20421;-84
2022/04/09 01:18:59;;;;;;;6.65;3.47;;;10.50;99.90;;;;;;4975939;28;19906;-86
2022/04/09 01:21:25;;;;;;;4.32;3.00;;;10.50;99.90;;;;;;4978106;28;20022;-85
2022/04/09 01:23:51;;;;;;;5.80;2.58;;;10.50;99.90;;;;;;4979549;28;20033;-85
2022/04/09 01:26:16;;;;;;;;;;;10.50;99.90;;;;;;4997534;28;20030;-85
2022/04/09 01:28:43;;;;;;;2.47;0.32;;;10.50;99.90;;;;;;4979583;28;20449;-85
2022/04/09 01:31:09;;;;;;;5.85;0.70;;;10.50;99.90;;;;;;4979775;28;20033;-84
2022/04/09 01:33:34;;;;;;;;;;;10.40;99.90;;;;;;4996295;28;20437;-85
2022/04/09 01:36:00;;;;;;;1.75;0.50;;;10.40;99.90;;;;;;4979417;28;19953;-85
2022/04/09 01:38:25;;;;;;;;;;;10.30;99.90;;;;;;4997434;28;20026;-84
2022/04/09 01:40:51;;;;;;;0.88;0.50;;;10.30;99.90;;;;;;4979449;28;20365;-85
2022/04/09 01:43:17;;;;;;;;;;;10.30;99.90;;;;;;4979787;28;20042;-85
2022/04/09 01:45:42;;;;;;;1.55;0.65;;;10.20;99.90;;;;;;4996919;28;19906;-84
2022/04/09 01:48:08;;;;;;;;;;;10.10;99.90;;;;;;4996312;28;20038;-85
2022/04/09 01:50:34;;;;;;;1.65;0.60;;;10.10;99.90;;;;;;4996782;28;19905;-85
2022/04/09 01:52:59;;;;;;;;;;;10.10;99.90;;;;;;4979906;28;20471;-85
2022/04/09 01:55:26;;;;;;;1.33;0.47;;;10.10;99.90;;;;;;4979639;28;19905;-85
2022/04/09 01:57:52;;;;;;;3.20;1.15;;;10.10;99.90;;;;;;4979761;28;20038;-85
2022/04/09 02:00:18;;;;;;;2.63;0.70;;;10.10;99.90;;;;;;4979358;28;20414;-85
2022/04/09 02:02:44;;;;;;;6.20;0.93;;;10.20;99.90;;;;;;4996540;28;20050;-84
2022/04/09 02:05:12;;;;;;;2.05;0.60;;;10.20;99.90;;;;;;4978972;28;20122;-85
2022/04/09 02:07:39;;;;;;;2.58;0.60;;;10.10;99.90;;;;;;4979384;28;20488;-85
2022/04/09 02:10:05;;;;;;;2.33;0.60;;;10.10;99.90;;;;;;4978975;28;20030;-84
2022/04/09 02:12:32;;;;;;;1.42;0.55;;;10.20;99.90;;;;;;4978754;28;20686;-85
2022/04/09 02:14:57;;;;;;;2.05;0.70;;;10.20;99.90;;;;;;4979161;28;20039;-85
2022/04/09 02:17:23;;;;;;;;;;;10.20;99.90;;;;;;4996508;28;20034;-84
2022/04/09 02:19:49;;;;;;;3.15;0.60;;;10.10;99.90;;;;;;4979062;28;19905;-85
2022/04/09 02:22:14;;;;;;;;;;;10.10;99.90;;;;;;4979696;28;20108;-84
2022/04/09 02:24:40;;;;;;;5.30;2.35;;;10.10;99.90;;;;;;5011473;28;19975;-85
2022/04/09 02:27:06;;;;;;;4.97;1.88;;;10.10;99.90;;;;;;4979378;28;20026;-85
2022/04/09 02:29:32;;;;;;;4.63;2.22;;;10.20;99.90;;;;;;4978764;28;20121;-86
2022/04/09 02:32:01;;;;;;;6.15;1.92;;;10.20;99.90;;;;;;4978352;28;20413;-84
2022/04/09 02:34:26;;;;;;;2.67;0.95;;;10.20;99.90;;;;;;4995995;28;20018;-85
2022/04/09 02:36:52;;;;;;;;;;;10.30;99.90;;;;;;4978548;28;20108;-85
2022/04/09 02:39:21;;;;;;;3.72;0.95;;;10.20;99.90;;;;;;4996053;28;19980;-85
2022/04/09 02:41:48;;;;;;;3.35;1.25;;;10.20;99.90;;;;;;4995739;28;20027;-85
2022/04/09 02:44:14;;;;;;;5.10;1.75;;;10.20;99.90;;;;;;4978167;28;20477;-84
2022/04/09 02:46:39;;;;;;;;;;;10.20;99.90;;;;;;4994297;28;20035;-85
2022/04/09 02:49:05;;;;;;;4.68;1.52;;;10.20;99.90;;;;;;5010669;28;20009;-84
2022/04/09 02:51:30;;;;;;;;;;;10.20;99.90;;;;;;4994841;28;20101;-84
2022/04/09 02:53:56;;;;;;;3.67;1.25;;;10.30;99.90;;;;;;4995521;28;20378;-84
2022/04/09 02:56:21;;;;;;;;;;;10.30;99.90;;;;;;4978151;28;20093;-84
2022/04/09 02:58:47;;;;;;;174.70;76.13;;;10.40;99.90;;;;;;4978273;28;19960;-85
2022/04/09 03:01:13;;;;;;;;;;;10.40;99.90;;;;;;4996304;28;20544;-84
2022/04/09 03:03:38;;;;;;;23.38;9.55;;;10.40;99.90;;;;;;4995139;28;19933;-84
2022/04/09 03:06:04;;;;;;;;;;;10.40;99.90;;;;;;4995465;28;20065;-84
2022/04/09 03:08:29;;;;;;;4.57;1.25;;;10.50;99.90;;;;;;4994933;28;19913;-83
2022/04/09 03:10:55;;;;;;;;;;;10.40;99.90;;;;;;4995518;28;20084;-84
2022/04/09 03:13:21;;;;;;;3.25;1.20;;;10.40;99.90;;;;;;5009441;28;19906;-84
2022/04/09 03:15:47;;;;;;;5.80;1.10;;;10.50;99.90;;;;;;4992665;28;20109;-85
2022/04/09 03:18:12;;;;;;;;;;;10.40;99.90;;;;;;4978156;28;20478;-84
2022/04/09 03:20:38;;;;;;;3.97;1.10;;;10.40;99.90;;;;;;4977699;28;19925;-85
2022/04/09 03:23:04;;;;;;;;;;;10.40;99.90;;;;;;4994229;28;20030;-85
2022/04/09 03:25:29;;;;;;;10.95;4.45;;;10.40;99.90;;;;;;4977607;28;20278;-83
2022/04/09 03:27:55;;;;;;;;;;;10.40;99.90;;;;;;4994402;28;20418;-85
2022/04/09 03:30:21;;;;;;;5.40;3.13;;;10.40;99.90;;;;;;5009955;28;20286;-84
2022/04/09 03:32:46;;;;;;;;;;;10.40;99.90;;;;;;4994894;28;20023;-85
2022/04/09 03:35:12;;;;;;;54.63;33.80;;;10.40;99.90;;;;;;5009806;28;19906;-83
2022/04/09 03:37:38;;;;;;;;;;;10.40;99.90;;;;;;4995124;28;20470;-84
2022/04/09 03:40:05;;;;;;;17.15;7.90;;;10.50;99.90;;;;;;4977318;28;19906;-85
2022/04/09 03:42:32;;;;;;;11.45;6.60;;;10.40;99.90;;;;;;4976944;28;20050;-85
2022/04/09 03:44:57;;;;;;;12.10;6.60;;;10.50;99.90;;;;;;4976791;28;20041;-85
2022/04/09 03:47:23;;;;;;;;;;;10.50;99.90;;;;;;4977827;28;20022;-85
2022/04/09 03:49:49;;;;;;;9.52;5.13;;;10.50;99.90;;;;;;4977247;28;19960;-85
2022/04/09 03:52:14;;;;;;;13.30;7.90;;;10.50;99.90;;;;;;4977062;28;20026;-85
2022/04/09 03:54:40;;;;;;;;;;;10.50;99.90;;;;;;4977529;28;20019;-85
2022/04/09 03:57:06;;;;;;;7.63;4.13;;;10.50;99.90;;;;;;4977101;28;19941;-84
2022/04/09 03:59:31;;;;;;;;;;;10.50;99.90;;;;;;4978121;28;20110;-85
2022/04/09 04:01:57;;;;;;;11.05;4.90;;;10.50;99.90;;;;;;4977187;28;19910;-85
2022/04/09 04:04:23;;;;;;;;;;;10.60;99.90;;;;;;4978278;28;20056;-85
2022/04/09 04:06:49;;;;;;;8.85;4.90;;;10.50;99.90;;;;;;4977272;28;19913;-83
2022/04/09 04:09:16;;;;;;;;;;;10.60;99.90;;;;;;4977622;28;20037;-85
2022/04/09 04:11:43;;;;;;;3.20;1.83;;;10.60;99.90;;;;;;4976948;28;19912;-85
2022/04/09 04:14:09;;;;;;;4.93;1.77;;;10.50;99.90;;;;;;4976893;28;20040;-85
2022/04/09 04:16:35;;;;;;;5.53;1.35;;;10.60;99.90;;;;;;4976478;28;20038;-86
2022/04/09 04:19:01;;;;;;;3.15;1.17;;;10.60;99.90;;;;;;4994433;28;20030;-83
2022/04/09 04:21:27;;;;;;;;;;;10.50;99.90;;;;;;4977311;28;20578;-84
2022/04/09 04:23:52;;;;;;;3.80;1.02;;;10.50;99.90;;;;;;4976802;28;19996;-85
2022/04/09 04:26:18;;;;;;;;;;;10.50;99.90;;;;;;4976939;28;20046;-85
2022/04/09 04:28:48;;;;;;;3.33;0.95;;;10.50;99.90;;;;;;4993704;28;20369;-86
2022/04/09 04:31:16;;;;;;;2.88;0.77;;;10.50;99.90;;;;;;4976562;28;20026;-85
2022/04/09 04:33:41;;;;;;;2.95;0.80;;;10.50;99.90;;;;;;4976361;28;20060;-85
2022/04/09 04:36:07;;;;;;;;;;;10.50;99.90;;;;;;4997907;28;20030;-85
2022/04/09 04:38:33;;;;;;;5.85;1.55;;;10.60;99.90;;;;;;4993802;28;19917;-83
2022/04/09 04:40:59;;;;;;;;;;;10.60;99.90;;;;;;4976803;28;20057;-85
2022/04/09 04:43:24;;;;;;;25.20;15.15;;;10.60;99.90;;;;;;4976418;28;19917;-85
2022/04/09 04:45:50;;;;;;;;;;;10.60;99.90;;;;;;4994519;28;20390;-85
2022/04/09 04:48:16;;;;;;;6.75;3.20;;;10.50;99.90;;;;;;4976571;28;20369;-85
2022/04/09 04:50:41;;;;;;;;;;;10.60;99.90;;;;;;4992839;28;20037;-85
2022/04/09 04:53:07;;;;;;;7.75;3.10;;;10.50;99.90;;;;;;5009080;28;19913;-85
2022/04/09 04:55:35;;;;;;;;;;;10.60;99.90;;;;;;4976364;28;20033;-85
2022/04/09 04:58:01;;;;;;;5.80;1.40;;;10.60;99.90;;;;;;4976506;28;19914;-86
2022/04/09 05:00:27;;;;;;;4.03;1.25;;;10.60;99.90;;;;;;4993748;28;20035;-85
2022/04/09 05:02:52;;;;;;;;;;;10.60;99.90;;;;;;4976170;28;20033;-84
2022/04/09 05:05:20;;;;;;;6.70;1.00;;;10.60;99.90;;;;;;4976233;28;19910;-84
2022/04/09 05:07:51;;;;;;;9.57;5.15;;;10.60;99.90;;;;;;4993384;28;20076;-84
2022/04/09 05:10:22;;;;;;;34.92;20.40;;;10.60;99.90;;;;;;4993402;28;20518;-85
2022/04/09 05:12:49;;;;;;;11.60;2.20;;;10.60;99.90;;;;;;4976249;28;20562;-84
2022/04/09 05:15:16;;;;;;;7.00;2.10;;;10.60;99.90;;;;;;4975898;28;20034;-86
2022/04/09 05:17:43;;;;;;;25.52;13.93;;;10.60;99.90;;;;;;4993370;28;20035;-85
2022/04/09 05:20:11;;;;;;;13.35;5.10;;;10.50;99.90;;;;;;4976557;28;20576;-85
2022/04/09 05:22:39;;;;;;;64.82;41.60;;;10.60;99.90;;;;;;4976155;28;20057;-86
2022/04/09 05:25:05;;;;;;;26.30;17.60;;;10.50;99.90;;;;;;4993314;28;20023;-85
2022/04/09 05:27:31;;;;;;;6.40;1.60;;;10.60;99.90;;;;;;4976009;28;20030;-86
2022/04/09 05:29:57;;;;;;;;;;;10.60;99.90;;;;;;4976329;28;20471;-85
2022/04/09 05:32:22;;;;;;;5.18;2.85;;;10.50;99.90;;;;;;4993183;28;19913;-86
2022/04/09 05:34:48;;;;;;;;;;;10.50;99.90;;;;;;4993146;28;20105;-86
2022/04/09 05:37:14;;;;;;;14.90;8.20;;;10.40;99.90;;;;;;5008729;28;19921;-86
2022/04/09 05:39:41;;;;;;;;;;;10.40;99.90;;;;;;4993785;28;20023;-85
2022/04/09 05:42:06;;;;;;;27.27;16.43;;;10.40;99.90;;;;;;4993284;28;19932;-86
2022/04/09 05:44:32;;;;;;;;;;;10.40;99.90;;;;;;4976388;28;20035;-85
2022/04/09 05:46:59;;;;;;;14.75;7.30;;;10.40;99.90;;;;;;4992815;28;20384;-85
2022/04/09 05:49:25;;;;;;;8.00;3.30;;;10.40;99.90;;;;;;4974755;28;20034;-85
2022/04/09 05:51:50;;;;;;;;;;;10.40;99.90;;;;;;4976183;28;20564;-85
2022/04/09 05:54:16;;;;;;;8.88;4.38;;;10.50;99.90;;;;;;4975912;28;19989;-85
2022/04/09 05:56:42;;;;;;;;;;;10.50;99.90;;;;;;4976158;28;20482;-85
2022/04/09 05:59:08;;;;;;;8.27;4.25;;;10.50;99.90;;;;;;4993107;28;19993;-85
2022/04/09 06:01:34;;;;;;;;;;;10.50;99.90;;;;;;4976202;28;20117;-86
2022/04/09 06:04:01;;;;;;;5.63;2.00;;;10.50;99.90;;;;;;4975945;28;19916;-86
2022/04/09 06:06:27;;;;;;;2.50;0.80;;;10.50;99.90;;;;;;4976245;28;20582;-86
2022/04/09 06:08:53;;;;;;;5.40;1.30;;;10.50;99.90;;;;;;4979118;28;20022;-86
2022/04/09 06:11:19;;;;;;;;;;;10.50;99.90;;;;;;4980084;28;20069;-86
2022/04/09 06:13:44;;;;;;;12.00;7.40;;;10.60;99.90;;;;;;4996790;28;19948;-86
2022/04/09 06:16:11;;;;;;;;;;;10.70;99.90;;;;;;4979591;28;20030;-86
2022/04/09 06:18:38;;;;;;;6.13;3.40;;;10.90;99.90;;;;;;4979243;28;19918;-87
2022/04/09 06:21:04;;;;;;;55.95;33.05;;;11.10;99.90;;;;;;4978706;28;20033;-85
2022/04/09 06:23:30;;;;;;;17.67;10.68;;;11.20;99.90;;;;;;4996455;28;20041;-86
2022/04/09 06:25:56;;;;;;;;;;;11.30;99.90;;;;;;4979588;28;20034;-86
2022/04/09 06:28:21;;;;;;;7.18;2.35;;;11.40;99.90;;;;;;4979047;28;20293;-86
2022/04/09 06:30:47;;;;;;;;;;;11.30;99.90;;;;;;4979289;28;20030;-86
2022/04/09 06:33:13;;;;;;;6.20;1.45;;;11.40;99.90;;;;;;4978811;28;19913;-86
2022/04/09 06:35:38;;;;;;;;;;;11.40;99.90;;;;;;4979074;28;20030;-86
2022/04/09 06:38:04;;;;;;;5.55;1.30;;;11.50;99.90;;;;;;4978805;28;19906;-86
2022/04/09 06:40:30;;;;;;;;;;;11.50;99.90;;;;;;4979147;28;20058;-86
2022/04/09 06:42:56;;;;;;;4.75;1.00;;;11.60;99.90;;;;;;4978591;28;20000;-87
2022/04/09 06:45:22;;;;;;;5.18;1.40;;;11.70;99.90;;;;;;4978762;28;20027;-86
2022/04/09 06:47:47;;;;;;;;;;;11.90;99.90;;;;;;4979065;28;20029;-86
2022/04/09 06:50:16;;;;;;;3.70;1.10;;;12.00;99.90;;;;;;4996168;28;19912;-86
2022/04/09 06:52:42;;;;;;;6.88;2.40;;;12.00;99.90;;;;;;4978302;28;20109;-86
2022/04/09 06:55:11;;;;;;;;;;;11.90;99.90;;;;;;4979034;28;20122;-86
2022/04/09 06:57:38;;;;;;;5.88;1.80;;;11.80;99.90;;;;;;4978110;28;20509;-86
2022/04/09 07:00:07;;;;;;;5.35;1.02;;;11.70;99.90;;;;;;4978363;28;20046;-86
2022/04/09 07:02:33;;;;;;;5.70;1.25;;;11.60;99.90;;;;;;4978020;28;20023;-86
2022/04/09 07:04:59;;;;;;;4.63;0.68;;;11.50;99.90;;;;;;4978106;28;20034;-86
2022/04/09 07:07:25;;;;;;;;;;;11.50;99.90;;;;;;4978393;28;20133;-85
2022/04/09 07:09:52;;;;;;;2.97;1.10;;;11.40;99.90;;;;;;4977895;28;19910;-87
2022/04/09 07:12:18;;;;;;;5.18;1.33;;;11.40;99.90;;;;;;4978293;28;20482;-86
2022/04/09 07:14:43;;;;;;;;;;;11.40;99.90;;;;;;4978141;28;20085;-84
2022/04/09 07:17:09;;;;;;;6.72;4.70;;;11.50;99.90;;;;;;4994962;28;19913;-84
2022/04/09 07:19:34;;;;;;;;;;;11.50;99.90;;;;;;4994346;28;20097;-85
2022/04/09 07:22:00;;;;;;;3.65;1.00;;;11.50;99.90;;;;;;4977788;28;19997;-83
2022/04/09 07:24:26;;;;;;;5.15;1.30;;;11.50;99.90;;;;;;4993710;28;20038;-84
2022/04/09 07:26:52;;;;;;;;;;;11.40;99.90;;;;;;4977969;28;20033;-84
2022/04/09 07:29:17;;;;;;;2.80;0.60;;;11.40;99.90;;;;;;4995091;28;19936;-83
2022/04/09 07:31:45;;;;;;;;;;;11.30;99.90;;;;;;4977582;28;20027;-85
2022/04/09 07:34:10;;;;;;;10.48;0.80;;;11.20;99.90;;;;;;4994889;28;19906;-85
2022/04/09 07:36:38;;;;;;;;;;;11.00;99.90;;;;;;4993450;28;20521;-85
2022/04/09 07:39:06;;;;;;;;;;;11.00;99.90;;;;;;4977740;28;20322;-84
2022/04/09 07:41:31;;;;;;;7.35;3.05;;;11.10;99.90;;;;;;4977439;28;19906;-84
2022/04/09 07:43:57;;;;;;;;;;;10.90;99.90;;;;;;4977549;28;20054;-84
2022/04/09 07:46:23;;;;;;;3.53;0.75;;;10.90;99.90;;;;;;4977101;28;19959;-84
2022/04/09 07:48:49;;;;;;;4.20;0.80;;;10.80;99.90;;;;;;4977183;28;20076;-84
2022/04/09 07:51:15;;;;;;;;;;;10.70;99.90;;;;;;4977190;28;20121;-84
2022/04/09 07:53:40;;;;;;;8.15;1.10;;;10.60;99.90;;;;;;4976768;28;20000;-85
2022/04/09 07:56:06;;;;;;;;;;;10.60;99.90;;;;;;4994854;28;20490;-85
2022/04/09 07:58:32;;;;;;;2.17;0.82;;;10.60;99.90;;;;;;4994556;28;19914;-84
2022/04/09 08:00:57;;;;;;;;;;;10.70;99.90;;;;;;4976612;28;20533;-85
2022/04/09 08:03:23;;;;;;;2.88;1.05;;;10.80;99.90;;;;;;5009442;28;19937;-84
2022/04/09 08:05:48;;;;;;;;;;;10.80;99.90;;;;;;4976956;28;20057;-84
2022/04/09 08:08:14;;;;;;;3.67;0.80;;;10.70;99.90;;;;;;5009233;28;19906;-83
2022/04/09 08:10:39;;;;;;;;;;;10.70;99.90;;;;;;4994530;28;20077;-85
2022/04/09 08:13:06;;;;;;;3.55;1.75;;;10.60;99.90;;;;;;4994029;28;19912;-84
2022/04/09 08:15:31;;;;;;;4.28;1.92;;;10.50;99.90;;;;;;4993899;28;20518;-85
2022/04/09 08:17:58;;;;;;;;;;;10.50;99.90;;;;;;4993146;28;20069;-84
2022/04/09 08:20:24;;;;;;;3.80;0.90;;;10.50;99.90;;;;;;5008180;28;19910;-83
2022/04/09 08:22:50;;;;;;;;;;;10.60;99.90;;;;;;4975313;28;20030;-84
2022/04/09 08:25:17;;;;;;;5.88;1.13;;;10.60;99.90;;;;;;5008883;28;19910;-83
2022/04/09 08:27:43;;;;;;;4.40;0.88;;;10.60;99.90;;;;;;4976232;28;20438;-84
2022/04/09 08:30:10;;;;;;;3.80;0.80;;;10.50;99.90;;;;;;4976029;28;20065;-84
2022/04/09 08:32:36;;;;;;;5.13;1.10;;;10.50;99.90;;;;;;4976206;28;20050;-85
2022/04/09 08:35:03;;;;;;;4.82;1.00;;;10.60;99.90;;;;;;4976321;28;20069;-85
2022/04/09 08:37:30;;;;;;;2.15;0.50;;;10.60;99.90;;;;;;4976383;28;20042;-84
2022/04/09 08:39:55;;;;;;;1.90;0.60;;;10.60;99.90;;;;;;4976543;28;20041;-84
2022/04/09 08:42:21;;;;;;;;;;;10.70;99.90;;;;;;4976331;28;20042;-84
2022/04/09 08:44:48;;;;;;;1.58;0.50;;;10.70;99.90;;;;;;5008880;28;19910;-84
2022/04/09 08:47:15;;;;;;;2.42;0.57;;;10.80;99.90;;;;;;4975975;28;20031;-85
2022/04/09 08:49:46;;;;;;;1.75;0.57;;;10.90;99.90;;;;;;4976395;28;20029;-85
2022/04/09 08:52:12;;;;;;;3.85;0.70;;;11.00;99.90;;;;;;4993683;28;20097;-85
2022/04/09 08:54:38;;;;;;;3.17;0.98;;;11.20;99.90;;;;;;4993806;28;20029;-85
2022/04/09 08:57:05;;;;;;;3.85;2.13;;;11.30;99.90;;;;;;4976365;28;20084;-85
2022/04/09 08:59:31;;;;;;;7.38;4.00;;;11.40;99.90;;;;;;4993929;28;20038;-85
2022/04/09 09:01:57;;;;;;;5.90;2.03;;;11.50;99.90;;;;;;4976445;28;20057;-85
2022/04/09 09:04:23;;;;;;;7.80;3.78;;;11.60;99.90;;;;;;4976620;28;20397;-86
2022/04/09 09:06:49;;;;;;;;;;;11.60;99.90;;;;;;4976837;28;20030;-87
2022/04/09 09:09:29;;;;;;;5.90;2.60;;;11.60;99.90;;;;;;4993614;28;20384;-85
2022/04/09 09:11:57;;;;;;;6.72;3.25;;;11.60;99.90;;;;;;4976377;28;20116;-85
2022/04/09 09:14:32;;;;;;;4.38;1.40;;;11.60;99.90;;;;;;4976493;28;20030;-87
2022/04/09 09:16:59;;;;;;;4.88;2.90;;;11.60;99.90;;;;;;4975916;28;20069;-87
2022/04/09 09:19:43;;;;;;;2.03;0.90;;;11.70;99.90;;;;;;4993761;28;20027;-86
2022/04/09 09:22:09;;;;;;;2.70;1.20;;;11.70;99.90;;;;;;4976260;28;20065;-87
2022/04/09 09:24:34;;;;;;;;;;;11.70;99.90;;;;;;4976542;28;20065;-87
2022/04/09 09:27:02;;;;;;;4.45;2.47;;;11.80;99.90;;;;;;4976439;28;19941;-86
2022/04/09 09:29:29;;;;;;;5.18;2.72;;;11.90;99.90;;;;;;4976393;28;20035;-86
2022/04/09 09:31:56;;;;;;;2.38;1.10;;;12.10;99.90;;;;;;4975989;28;20030;-86
2022/04/09 09:34:22;;;;;;;1.20;0.50;;;12.40;99.90;;;;;;4976032;28;20026;-86
2022/04/09 09:36:49;;;;;;;;;;;12.50;99.90;;;;;;4976395;28;20309;-86
2022/04/09 09:39:17;;;;;;;2.92;1.58;;;12.50;99.90;;;;;;4993071;28;19905;-86
2022/04/09 09:41:55;;;;;;;4.05;1.75;;;12.50;99.90;;;;;;4976711;28;20069;-86
2022/04/09 09:44:22;;;;;;;2.40;1.17;;;12.50;99.90;;;;;;4979403;28;20059;-86
2022/04/09 09:46:50;;;;;;;1.00;0.50;;;12.50;99.90;;;;;;4979366;28;20065;-87
2022/04/09 09:49:17;;;;;;;2.90;0.40;;;12.60;99.90;;;;;;4979583;28;20078;-86
2022/04/09 09:51:43;;;;;;;0.30;0.20;;;12.60;99.90;;;;;;4980220;28;20069;-86
2022/04/09 09:54:08;;;;;;;;;;;12.70;99.90;;;;;;4998265;28;20034;-86
2022/04/09 09:56:36;;;;;;;2.30;0.40;;;12.80;99.90;;;;;;4995373;28;19910;-87
2022/04/09 09:59:05;;;;;;;1.55;0.70;;;12.90;99.90;;;;;;4996924;28;20042;-86
2022/04/09 10:01:34;;;;;;;0.77;0.30;;;12.90;99.90;;;;;;4997011;28;20469;-86
2022/04/09 10:04:01;;;;;;;3.42;0.38;;;12.90;99.90;;;;;;4979191;28;20125;-86
2022/04/09 10:06:28;;;;;;;1.83;0.50;;;12.80;99.90;;;;;;4979414;28;20027;-86
2022/04/09 10:08:54;;;;;;;7.70;0.50;;;12.70;99.90;;;;;;4979311;28;20037;-85
2022/04/09 10:11:20;;;;;;;;;;;12.60;99.90;;;;;;4996932;28;20445;-86
2022/04/09 10:13:47;;;;;;;2.53;0.40;;;12.50;99.90;;;;;;4979442;28;20305;-85
2022/04/09 10:16:21;;;;;;;1.15;0.30;;;12.60;99.90;;;;;;4979125;28;20038;-86
2022/04/09 10:18:49;;;;;;;1.55;0.30;;;12.60;99.90;;;;;;4996471;28;20065;-86
2022/04/09 10:21:16;;;;;;;1.08;0.35;;;12.60;99.90;;;;;;4979338;28;20061;-86
2022/04/09 10:23:44;;;;;;;3.00;0.20;;;12.60;99.90;;;;;;4996556;28;20053;-86
2022/04/09 10:26:11;;;;;;;1.40;0.55;;;12.50;99.90;;;;;;4979059;28;20037;-87
2022/04/09 10:28:39;;;;;;;5.03;1.95;;;12.50;99.90;;;;;;4978972;28;20022;-87
2022/04/09 10:31:30;;;;;;;5.13;1.98;;;12.40;99.90;;;;;;4978816;28;20113;-87
2022/04/09 10:33:58;;;;;;;4.45;1.08;;;12.30;99.90;;;;;;4978957;28;20544;-87
2022/04/09 10:36:45;;;;;;;2.22;0.93;;;12.30;99.90;;;;;;4978684;28;20121;-87
2022/04/09 10:39:22;;;;;;;2.60;1.50;;;12.30;99.90;;;;;;4978950;28;20037;-87
2022/04/09 10:41:57;;;;;;;3.45;1.48;;;12.40;99.90;;;;;;4978799;28;20466;-85
2022/04/09 10:44:42;;;;;;;1.50;0.40;;;12.30;99.90;;;;;;4974191;28;20065;-87
2022/04/09 10:47:08;;;;;;;1.50;0.40;;;12.40;99.90;;;;;;4995850;28;20030;-86
2022/04/09 10:49:33;;;;;;;;;;;12.30;99.90;;;;;;4996301;28;20034;-86
2022/04/09 10:52:19;;;;;;;1.73;0.60;;;12.30;99.90;;;;;;4997627;28;19910;-86
2022/04/09 10:55:10;;;;;;;2.22;0.68;;;12.20;99.90;;;;;;4993436;28;20119;-86
2022/04/09 10:57:43;;;;;;;1.75;0.47;;;12.30;99.90;;;;;;4978751;28;20038;-85
2022/04/09 11:00:31;;;;;;;3.08;0.60;;;12.50;99.90;;;;;;4980122;28;20022;-86
2022/04/09 11:03:31;;;;;;;1.67;0.55;;;12.60;99.90;;;;;;4978005;28;20030;-86
2022/04/09 11:06:40;;;;;;;3.88;0.95;;;12.70;99.90;;;;;;4977994;28;20030;-85
2022/04/09 11:09:06;;;;;;;14.18;1.45;;;12.80;99.90;;;;;;4978964;28;20045;-85
2022/04/09 11:11:31;;;;;;;;;;;12.70;99.90;;;;;;4978503;28;20490;-86
2022/04/09 11:13:57;;;;;;;2.20;1.10;;;12.30;99.90;;;;;;4978745;28;19945;-86
2022/04/09 11:16:22;;;;;;;;;;;11.80;99.90;;;;;;4995981;28;20038;-87
2022/04/09 11:18:49;;;;;;;1.30;0.75;;;11.70;99.90;;;;;;4978227;28;19917;-87
2022/04/09 11:21:15;;;;;;;1.67;0.63;;;11.50;99.90;;;;;;4995445;28;20029;-88
2022/04/09 11:23:43;;;;;;;;;;;11.50;99.90;;;;;;4978881;28;20034;-87
2022/04/09 11:26:16;;;;;;;1.45;0.70;;;11.60;99.90;;;;;;4978309;28;19910;-86
2022/04/09 11:28:42;;;;;;;1.35;0.70;;;11.70;99.90;;;;;;4978732;28;20065;-88
2022/04/09 11:31:08;;;;;;;;;;;11.90;99.90;;;;;;4978693;28;20057;-88
2022/04/09 11:33:33;;;;;;;2.83;0.70;;;11.90;99.90;;;;;;5010411;28;20362;-89
2022/04/09 11:36:02;;;;;;;;;;;12.00;99.90;;;;;;4995879;28;20379;-88
2022/04/09 11:38:28;;;;;;;2.15;0.80;;;12.20;99.90;;;;;;4977789;28;19909;-89
2022/04/09 11:40:55;;;;;;;5.03;1.00;;;12.20;99.90;;;;;;4977990;28;20053;-88
2022/04/09 11:43:23;;;;;;;1.25;0.68;;;12.30;99.90;;;;;;4977721;28;20042;-88
2022/04/09 11:45:49;;;;;;;1.58;0.73;;;12.50;99.90;;;;;;4977607;28;20101;-88
2022/04/09 11:48:18;;;;;;;;;;;12.70;99.90;;;;;;4978208;28;20114;-90
2022/04/09 11:50:45;;;;;;;1.70;0.82;;;12.80;99.90;;;;;;4977615;28;20448;-89
2022/04/09 11:53:16;;;;;;;1.77;0.68;;;12.90;99.90;;;;;;4977846;28;20034;-88
2022/04/09 11:55:44;;;;;;;0.98;0.45;;;12.90;99.90;;;;;;4977695;28;20022;-88
2022/04/09 11:58:11;;;;;;;0.70;0.50;;;12.90;99.90;;;;;;4978292;28;20418;-89
2022/04/09 12:00:42;;;;;;;0.73;0.40;;;12.80;99.90;;;;;;4977776;28;20022;-89
2022/04/09 12:03:08;;;;;;;1.40;0.55;;;12.70;99.90;;;;;;4977873;28;20026;-89
2022/04/09 12:05:41;;;;;;;0.95;0.60;;;12.50;99.90;;;;;;4976839;28;20023;-89
2022/04/09 12:08:26;;;;;;;1.10;0.50;;;12.60;99.90;;;;;;4978791;28;20022;-89
2022/04/09 12:10:56;;;;;;;2.45;0.50;;;12.50;99.90;;;;;;4977217;28;20478;-90
2022/04/09 12:13:26;;;;;;;4.78;1.02;;;12.30;99.90;;;;;;4977680;28;20505;-90
2022/04/09 12:15:52;;;;;;;1.70;0.50;;;12.20;99.90;;;;;;4977247;28;20029;-88
2022/04/09 12:18:27;;;;;;;;;;;12.10;99.90;;;;;;4981274;28;20030;-90
2022/04/09 12:20:53;;;;;;;1.15;0.70;;;11.90;99.90;;;;;;4979237;28;19913;-87
2022/04/09 12:23:32;;;;;;;;;;;11.90;99.90;;;;;;4979031;28;20030;-88
2022/04/09 12:25:59;;;;;;;1.67;0.70;;;11.90;99.90;;;;;;4976946;28;19913;-89
2022/04/09 12:28:28;;;;;;;1.00;0.40;;;11.90;99.90;;;;;;4977210;28;20030;-89
2022/04/09 12:30:56;;;;;;;0.93;0.32;;;11.90;99.90;;;;;;4976832;28;20026;-89
2022/04/09 12:33:23;;;;;;;0.60;0.30;;;12.10;99.90;;;;;;4976838;28;20084;-86
2022/04/09 12:35:49;;;;;;;2.47;0.82;;;12.20;99.90;;;;;;4977248;28;20037;-89
2022/04/09 12:38:36;;;;;;;1.00;0.50;;;12.40;99.90;;;;;;4976830;28;20093;-90
2022/04/09 12:41:04;;;;;;;1.17;0.47;;;12.50;99.90;;;;;;4976873;28;20026;-89
2022/04/09 12:43:42;;;;;;;1.63;0.45;;;12.40;99.90;;;;;;4974619;28;20056;-88
2022/04/09 12:46:13;;;;;;;0.93;0.30;;;12.50;99.90;;;;;;4975055;28;20023;-88
2022/04/09 12:48:44;;;;;;;2.40;1.10;;;12.50;99.90;;;;;;4957488;28;20058;-89
2022/04/09 12:51:13;;;;;;;20.45;13.70;;;12.40;99.90;;;;;;4957300;28;20125;-88
2022/04/09 12:53:38;;;;;;;19.60;13.35;;;12.40;99.90;;;;;;4974564;28;20029;-91
2022/04/09 12:56:08;;;;;;;;;;;12.40;99.90;;;;;;4957744;28;20034;-88
2022/04/09 12:58:33;;;;;;;1.52;0.50;;;12.40;99.90;;;;;;4957443;28;19910;-89
2022/04/09 13:00:59;;;;;;;;;;;12.50;99.90;;;;;;4957788;28;20090;-89
2022/04/09 13:03:25;;;;;;;1.05;0.40;;;12.20;99.90;;;;;;4957351;28;19913;-88
2022/04/09 13:05:50;;;;;;;;;;;12.30;99.90;;;;;;4957575;28;20744;-88
2022/04/09 13:08:16;;;;;;;0.73;0.30;;;12.30;98.80;;;;;;4957099;28;19960;-89
2022/04/09 13:10:41;;;;;;;;;;;12.30;97.80;;;;;;4958734;28;20031;-89